Cokedale, Colorado
Current Conditions -  °F | °C
As of 5:54 AM on Sunday 23 Nov 2014 (Local Time) from KTAD Reporting Station
Overcast Overcast  
Wind Chill: 28°   Ceiling: 8000
Heat Index: 39°   Visibility: 10mi
Dew Point: 28°   Wind: 23mph
Humidity: 65%   Direction: 30°NNE
Pressure: 29.65"   Gusts: 36mph
Location:  37.1661°N, 104.486°W
Report Text: KTAD 231254Z AUTO 03020G31KT 10SM BKN080 OVC095 04/M02 A2965 RMK AO2 PK WND 04041/1241 WSHFT 1234 PRESRR SLP017 T00391022
Loading
Personal Weather Stations






























Interactive Weather Map New forecast layout! Learn more

10-Day Weather Forecast

Advertisements
Track Severe Weather on mobile